createdAt,value
2022-12-04T00:00:22.794Z,20.45
2022-12-04T00:05:26.348Z,18.15
2022-12-04T00:10:31.462Z,22.83
2022-12-04T00:15:35.057Z,18.95
2022-12-04T00:20:41.409Z,20.35
2022-12-04T00:25:48.686Z,17.98
2022-12-04T00:30:52.391Z,19.88
2022-12-04T00:36:01.072Z,18.88
2022-12-04T00:41:06.841Z,16.15
2022-12-04T00:46:11.026Z,18.58
2022-12-04T00:51:18.667Z,16.58
2022-12-04T00:56:27.578Z,17.27
2022-12-04T01:01:32.043Z,17.25
2022-12-04T01:06:36.715Z,15.40
2022-12-04T01:11:41.751Z,16.38
2022-12-04T01:16:45.478Z,15.52
2022-12-04T01:21:49.187Z,17.23
2022-12-04T01:26:54.095Z,15.20
2022-12-04T01:31:57.661Z,15.30
2022-12-04T01:37:01.337Z,14.85
2022-12-04T01:42:06.693Z,13.48
2022-12-04T01:47:12.725Z,14.40
2022-12-04T01:52:23.156Z,11.93
2022-12-04T01:57:33.138Z,13.52
2022-12-04T02:02:41.259Z,15.15
2022-12-04T02:07:50.381Z,12.80
2022-12-04T02:13:07.472Z,14.88
2022-12-04T02:18:21.927Z,13.53
2022-12-04T02:23:59.252Z,14.23
2022-12-04T02:29:12.001Z,11.93
2022-12-04T02:34:22.893Z,12.70
2022-12-04T02:39:37.758Z,12.75
2022-12-04T02:44:48.405Z,13.55
2022-12-04T02:49:58.291Z,12.32
2022-12-04T02:55:08.858Z,11.93
2022-12-04T03:00:16.743Z,12.07
2022-12-04T03:10:36.059Z,11.40
2022-12-04T03:15:46.562Z,10.40
2022-12-04T03:20:56.520Z,17.63
2022-12-04T03:26:06.415Z,12.50
2022-12-04T03:31:12.670Z,11.75
2022-12-04T03:36:22.793Z,10.82
2022-12-04T03:41:32.763Z,10.57
2022-12-04T03:46:44.405Z,11.00
2022-12-04T03:51:56.375Z,11.20
2022-12-04T03:57:07.906Z,11.23
2022-12-04T04:02:19.461Z,9.40
2022-12-04T04:07:35.129Z,11.40
2022-12-04T04:13:07.787Z,11.93
2022-12-04T04:18:30.635Z,12.25
2022-12-04T04:23:57.626Z,9.70
2022-12-04T04:29:01.279Z,10.50
2022-12-04T04:34:15.882Z,9.80
2022-12-04T04:39:31.041Z,10.27
2022-12-04T04:44:42.768Z,9.43
2022-12-04T04:49:50.526Z,11.68
2022-12-04T04:59:57.971Z,13.45
2022-12-04T05:05:03.112Z,11.02
2022-12-04T05:10:10.266Z,9.93
2022-12-04T05:15:14.055Z,11.03
2022-12-04T05:20:19.225Z,11.20
2022-12-04T05:25:22.707Z,10.35
2022-12-04T05:30:26.383Z,12.07
2022-12-04T05:35:31.352Z,10.45
2022-12-04T05:40:34.897Z,9.40
2022-12-04T05:45:39.328Z,9.13
2022-12-04T05:50:44.413Z,10.77
2022-12-04T05:55:57.154Z,9.80
2022-12-04T06:01:00.745Z,10.52
2022-12-04T06:06:05.988Z,14.43
2022-12-04T06:11:13.820Z,12.52
2022-12-04T06:21:27.018Z,9.15
2022-12-04T06:26:30.924Z,10.18
2022-12-04T06:31:36.358Z,9.70
2022-12-04T06:36:41.359Z,8.73
2022-12-04T06:41:44.955Z,9.10
2022-12-04T06:46:50.437Z,11.00
2022-12-04T06:51:55.374Z,9.80
2022-12-04T06:56:58.917Z,10.40
2022-12-04T07:02:02.483Z,9.52
2022-12-04T07:07:10.287Z,9.88
2022-12-04T07:17:17.362Z,9.18
2022-12-04T07:22:22.308Z,9.10
2022-12-04T07:27:25.808Z,8.98
2022-12-04T07:32:29.362Z,9.13
2022-12-04T07:37:38.007Z,9.38
2022-12-04T07:42:41.734Z,9.80
2022-12-04T07:47:45.257Z,9.73
2022-12-04T07:52:50.171Z,8.85
2022-12-04T07:57:53.683Z,8.77
2022-12-04T08:02:57.459Z,9.48
2022-12-04T08:08:02.580Z,10.75
2022-12-04T08:13:06.110Z,10.23
2022-12-04T08:18:09.719Z,9.30
2022-12-04T08:23:14.720Z,9.55
2022-12-04T08:28:18.257Z,9.57
2022-12-04T08:33:21.878Z,8.90
2022-12-04T08:38:26.815Z,9.40
2022-12-04T08:43:30.879Z,8.98
2022-12-04T08:48:35.612Z,9.32
2022-12-04T08:53:40.473Z,8.68
2022-12-04T08:58:44.107Z,7.57
2022-12-04T09:03:47.753Z,8.35
2022-12-04T09:08:56.336Z,9.73
2022-12-04T09:14:02.866Z,12.50
2022-12-04T09:19:06.505Z,13.63
2022-12-04T09:24:11.473Z,13.38
2022-12-04T09:29:15.115Z,11.90
2022-12-04T09:34:18.910Z,13.25
2022-12-04T09:39:23.895Z,11.10
2022-12-04T09:44:33.402Z,14.80
2022-12-04T09:49:43.434Z,31.15
2022-12-04T09:54:49.406Z,31.77
2022-12-04T09:59:54.920Z,33.40
2022-12-04T10:04:58.664Z,31.98
2022-12-04T10:10:14.419Z,31.05
2022-12-04T10:15:31.357Z,33.10
2022-12-04T10:20:56.551Z,32.07
2022-12-04T10:26:03.882Z,30.15
2022-12-04T10:31:15.567Z,26.60
2022-12-04T10:36:23.464Z,26.77
2022-12-04T10:41:37.178Z,28.85
2022-12-04T10:46:45.755Z,28.75
2022-12-04T10:51:53.049Z,26.08
2022-12-04T10:57:02.678Z,23.67
2022-12-04T11:02:23.070Z,24.08
2022-12-04T11:07:29.827Z,24.70
2022-12-04T11:12:35.379Z,24.95
2022-12-04T11:17:39.066Z,24.67
2022-12-04T11:22:53.361Z,22.92
2022-12-04T11:28:03.621Z,23.58
2022-12-04T11:33:19.003Z,24.77
2022-12-04T11:38:28.255Z,21.80
2022-12-04T11:43:34.594Z,21.95
2022-12-04T11:48:46.721Z,20.38
2022-12-04T11:53:55.889Z,18.90
2022-12-04T11:59:35.689Z,19.83
2022-12-04T12:05:28.572Z,19.08
2022-12-04T12:10:44.767Z,21.38
2022-12-04T12:16:01.647Z,19.30
2022-12-04T12:21:13.282Z,18.33
2022-12-04T12:26:19.992Z,18.98
2022-12-04T12:31:56.622Z,18.02
2022-12-04T12:37:05.555Z,21.17
2022-12-04T12:42:19.476Z,17.65
2022-12-04T12:47:29.556Z,16.50
2022-12-04T12:52:42.206Z,15.52
2022-12-04T12:57:53.466Z,15.25
2022-12-04T13:03:06.445Z,14.73
2022-12-04T13:08:23.016Z,13.88
2022-12-04T13:13:31.436Z,12.80
2022-12-04T13:18:45.334Z,12.20
2022-12-04T13:24:05.681Z,12.68
2022-12-04T13:29:38.027Z,12.25
2022-12-04T13:35:00.836Z,12.80
2022-12-04T13:40:47.837Z,11.18
2022-12-04T13:45:55.587Z,11.30
2022-12-04T13:51:34.601Z,11.38
2022-12-04T13:56:39.695Z,11.18
2022-12-04T14:01:50.113Z,10.95
2022-12-04T14:06:58.862Z,10.50
2022-12-04T14:12:05.607Z,10.13
2022-12-04T14:17:21.913Z,9.63
2022-12-04T14:22:42.967Z,10.50
2022-12-04T14:27:51.896Z,10.40
2022-12-04T14:33:03.758Z,8.90
2022-12-04T14:38:18.247Z,9.32
2022-12-04T14:43:26.086Z,10.35
2022-12-04T14:48:41.411Z,8.90
2022-12-04T14:53:53.981Z,9.85
2022-12-04T14:58:59.292Z,9.98
2022-12-04T15:04:14.741Z,10.30
2022-12-04T15:09:41.941Z,9.77
2022-12-04T15:14:48.664Z,8.47
2022-12-04T15:19:52.143Z,9.15
2022-12-04T15:24:57.882Z,8.38
2022-12-04T15:30:04.078Z,7.88
2022-12-04T15:35:16.939Z,9.00
2022-12-04T15:40:26.744Z,8.73
2022-12-04T15:45:34.432Z,8.32
2022-12-04T15:50:38.099Z,9.07
2022-12-04T15:55:55.816Z,7.93
2022-12-04T16:01:04.650Z,7.85
2022-12-04T16:06:21.144Z,8.00
2022-12-04T16:11:34.373Z,7.40
2022-12-04T16:16:42.362Z,7.60
2022-12-04T16:21:46.855Z,8.27
2022-12-04T16:26:56.139Z,7.28
2022-12-04T16:32:03.283Z,8.40
2022-12-04T16:37:14.062Z,9.43
2022-12-04T16:42:24.238Z,8.15
2022-12-04T16:47:28.183Z,8.18
2022-12-04T16:52:31.954Z,8.35
2022-12-04T16:57:37.016Z,9.75
2022-12-04T17:02:40.610Z,7.85
2022-12-04T17:07:44.408Z,11.35
2022-12-04T17:12:50.111Z,7.85
2022-12-04T17:17:54.078Z,13.07
2022-12-04T17:22:58.180Z,8.93
2022-12-04T17:28:03.235Z,15.82
2022-12-04T17:33:07.371Z,12.63
2022-12-04T17:38:11.250Z,13.20
2022-12-04T17:43:21.750Z,12.05
2022-12-04T17:48:27.455Z,14.13
2022-12-04T17:53:31.007Z,12.65
2022-12-04T17:58:37.198Z,12.73
2022-12-04T18:03:43.419Z,9.82
2022-12-04T18:08:50.266Z,11.40
2022-12-04T18:14:01.294Z,9.57
2022-12-04T18:19:06.349Z,9.18
2022-12-04T18:24:10.453Z,10.23
2022-12-04T18:29:19.862Z,8.95
2022-12-04T18:34:24.102Z,9.75
2022-12-04T18:39:28.294Z,8.75
2022-12-04T18:44:33.452Z,7.53
2022-12-04T18:49:36.997Z,8.93
2022-12-04T18:54:40.662Z,9.90
2022-12-04T18:59:45.887Z,8.63
2022-12-04T19:04:49.602Z,8.30
2022-12-04T19:10:10.811Z,7.82
2022-12-04T19:15:21.811Z,10.55
2022-12-04T19:20:25.472Z,8.07
2022-12-04T19:25:29.036Z,9.65
2022-12-04T19:30:35.375Z,12.00
2022-12-04T19:35:39.232Z,12.55
2022-12-04T19:40:43.053Z,16.38
2022-12-04T19:45:50.965Z,15.60
2022-12-04T19:50:54.704Z,14.75
2022-12-04T19:55:58.599Z,11.75
2022-12-04T20:01:05.548Z,12.82
2022-12-04T20:06:13.726Z,10.73
2022-12-04T20:11:20.043Z,12.30
2022-12-04T20:16:28.069Z,15.65
2022-12-04T20:21:32.585Z,13.27
2022-12-04T20:26:39.457Z,12.80
2022-12-04T20:31:46.877Z,12.67
2022-12-04T20:36:51.247Z,12.93
2022-12-04T20:41:55.049Z,14.30
2022-12-04T20:47:00.367Z,12.90
2022-12-04T20:52:04.965Z,15.32
2022-12-04T20:57:08.632Z,13.30
2022-12-04T21:02:14.523Z,13.73
2022-12-04T21:07:18.261Z,12.07
2022-12-04T21:12:43.143Z,14.18
2022-12-04T21:17:48.419Z,13.40
2022-12-04T21:22:51.942Z,12.73
2022-12-04T21:27:55.686Z,11.95
2022-12-04T21:33:00.671Z,12.20
2022-12-04T21:38:04.222Z,13.25
2022-12-04T21:43:07.798Z,15.45
2022-12-04T21:48:13.178Z,12.23
2022-12-04T21:53:16.756Z,12.40
2022-12-04T21:58:22.832Z,11.00
2022-12-04T22:03:28.030Z,10.05
2022-12-04T22:08:32.035Z,11.65
2022-12-04T22:13:36.716Z,13.73
2022-12-04T22:18:42.265Z,10.25
2022-12-04T22:23:45.962Z,10.68
2022-12-04T22:28:49.658Z,14.73
2022-12-04T22:33:57.883Z,17.33
2022-12-04T22:39:10.387Z,14.02
2022-12-04T22:44:14.665Z,15.63
2022-12-04T22:49:19.858Z,11.00
2022-12-04T22:54:23.396Z,12.43
2022-12-04T22:59:26.916Z,12.50
2022-12-04T23:04:31.880Z,12.40
2022-12-04T23:09:35.858Z,12.43
2022-12-04T23:14:39.449Z,13.45
2022-12-04T23:19:44.340Z,11.05
2022-12-04T23:24:48.174Z,11.05
2022-12-04T23:29:54.007Z,10.48
2022-12-04T23:34:58.977Z,10.18
2022-12-04T23:40:02.878Z,10.45
2022-12-04T23:45:08.392Z,10.77
2022-12-04T23:50:13.642Z,10.82
2022-12-04T23:55:17.429Z,9.80
